Time,TemperatureF,DewpointF,PressureIn,WindDirection,WindDirectionDegrees,WindSpeedMPH,WindSpeedGustMPH,Humidity,HourlyPrecipIn,Conditions,Clouds,dailyrainin,SoftwareType,DateUTC
2013-05-19 13:07:00,78.6,59.5,29.24,WNW,293,3.0,5.0,52,0.00,,,0.00,meteohub,2013-05-19 17:07:00,
2013-05-19 13:08:00,78.6,59.5,29.24,WNW,293,3.0,5.0,52,0.00,,,0.00,meteohub,2013-05-19 17:08:00,
2013-05-19 13:09:00,78.6,59.5,29.24,NNE,23,2.0,5.0,52,0.00,,,0.00,meteohub,2013-05-19 17:09:00,
2013-05-19 13:14:00,77.9,58.8,29.24,WNW,293,2.0,3.0,52,0.00,,,0.00,meteohub,2013-05-19 17:14:00,
2013-05-19 13:19:00,77.0,59.0,29.24,NNE,23,2.0,4.0,54,0.00,,,0.00,meteohub,2013-05-19 17:19:00,
2013-05-19 13:24:00,76.8,59.4,29.24,NNW,338,3.0,5.0,55,0.00,,,0.00,meteohub,2013-05-19 17:24:00,
2013-05-19 13:29:00,76.3,59.0,29.24,WNW,293,2.0,5.0,55,0.00,,,0.00,meteohub,2013-05-19 17:29:00,
2013-05-19 13:34:00,76.1,58.8,29.24,NNE,23,3.0,6.0,55,0.00,,,0.00,meteohub,2013-05-19 17:34:00,
2013-05-19 13:39:00,75.4,59.0,29.21,SSE,158,0.0,6.0,57,0.00,,,0.00,meteohub,2013-05-19 17:39:00,
2013-05-19 13:44:00,75.4,59.0,29.21,North,0,0.0,4.0,57,0.00,,,0.00,meteohub,2013-05-19 17:44:00,
2013-05-19 13:49:00,75.6,58.8,29.21,NE,45,2.0,4.0,56,0.00,,,0.00,meteohub,2013-05-19 17:49:00,
2013-05-19 13:54:00,75.9,59.2,29.21,NNW,338,4.0,4.0,56,0.00,,,0.00,meteohub,2013-05-19 17:54:00,
2013-05-19 13:59:00,75.9,58.6,29.21,NW,315,7.0,7.0,55,0.00,,,0.00,meteohub,2013-05-19 17:59:00,
2013-05-19 14:04:00,75.7,58.5,29.21,WNW,293,2.0,7.0,55,0.00,,,0.00,meteohub,2013-05-19 18:04:00,
2013-05-19 14:09:00,75.2,57.9,29.21,East,90,2.0,7.0,55,0.00,,,0.00,meteohub,2013-05-19 18:09:00,
2013-05-19 14:14:00,74.8,57.6,29.21,WNW,293,2.0,7.0,55,0.00,,,0.00,meteohub,2013-05-19 18:14:00,
2013-05-19 14:19:00,74.5,57.7,29.23,East,90,3.0,4.0,56,0.00,,,0.00,meteohub,2013-05-19 18:19:00,
2013-05-19 14:24:00,75.0,57.7,29.23,SW,225,2.0,4.0,55,0.00,,,0.00,meteohub,2013-05-19 18:24:00,
2013-05-19 14:29:00,75.4,58.1,29.23,North,0,3.0,4.0,55,0.00,,,0.00,meteohub,2013-05-19 18:29:00,
2013-05-19 14:34:00,75.7,58.5,29.23,East,90,2.0,5.0,55,0.00,,,0.00,meteohub,2013-05-19 18:34:00,
2013-05-19 14:39:00,75.9,58.6,29.23,NNE,23,3.0,5.0,55,0.00,,,0.00,meteohub,2013-05-19 18:39:00,
2013-05-19 14:44:00,76.1,58.8,29.23,NNE,23,2.0,5.0,55,0.00,,,0.00,meteohub,2013-05-19 18:44:00,
2013-05-19 14:49:00,76.5,59.2,29.23,NNE,23,2.0,5.0,55,0.00,,,0.00,meteohub,2013-05-19 18:49:00,
2013-05-19 14:54:00,76.5,58.6,29.23,NE,45,4.0,4.0,54,0.00,,,0.00,meteohub,2013-05-19 18:54:00,
2013-05-19 14:59:00,76.3,59.0,29.23,NNE,23,3.0,3.0,55,0.00,,,0.00,meteohub,2013-05-19 18:59:00,
2013-05-19 15:04:00,76.5,59.2,29.23,NNE,23,1.0,4.0,55,0.00,,,0.00,meteohub,2013-05-19 19:04:00,
2013-05-19 15:09:00,76.3,59.0,29.23,ENE,68,0.0,4.0,55,0.00,,,0.00,meteohub,2013-05-19 19:09:00,
2013-05-19 15:14:00,76.6,59.2,29.23,North,0,2.0,3.0,55,0.00,,,0.00,meteohub,2013-05-19 19:14:00,
2013-05-19 15:19:00,76.8,59.0,29.23,NE,45,2.0,3.0,54,0.00,,,0.00,meteohub,2013-05-19 19:19:00,
2013-05-19 15:24:00,76.6,58.8,29.23,NNW,338,3.0,5.0,54,0.00,,,0.00,meteohub,2013-05-19 19:24:00,
2013-05-19 15:29:00,76.3,59.0,29.23,ENE,68,0.0,5.0,55,0.00,,,0.00,meteohub,2013-05-19 19:29:00,
2013-05-19 15:34:00,76.5,59.2,29.20,ESE,113,0.0,5.0,55,0.00,,,0.00,meteohub,2013-05-19 19:34:00,
2013-05-19 15:39:00,77.2,60.3,29.20,NNE,23,4.0,5.0,56,0.00,,,0.00,meteohub,2013-05-19 19:39:00,
2013-05-19 15:44:00,77.0,59.5,29.20,NE,45,3.0,5.0,55,0.00,,,0.00,meteohub,2013-05-19 19:44:00,
2013-05-19 15:49:00,77.4,60.4,29.20,WSW,248,3.0,5.0,56,0.00,,,0.00,meteohub,2013-05-19 19:49:00,
2013-05-19 15:54:00,77.7,60.3,29.19,WNW,293,3.0,4.0,55,0.00,,,0.00,meteohub,2013-05-19 19:54:00,
2013-05-19 15:59:00,78.3,61.3,29.19,SSE,158,2.0,4.0,56,0.00,,,0.00,meteohub,2013-05-19 19:59:00,
2013-05-19 16:04:00,79.0,61.9,29.19,East,90,0.0,4.0,56,0.00,,,0.00,meteohub,2013-05-19 20:04:00,
2013-05-19 16:09:00,78.6,61.2,29.19,North,0,2.0,4.0,55,0.00,,,0.00,meteohub,2013-05-19 20:09:00,
2013-05-19 16:14:00,78.6,61.5,29.18,WSW,248,0.0,4.0,56,0.00,,,0.00,meteohub,2013-05-19 20:14:00,
2013-05-19 16:19:00,79.2,62.1,29.18,SW,225,0.0,4.0,56,0.00,,,0.00,meteohub,2013-05-19 20:19:00,
2013-05-19 16:24:00,79.7,62.1,29.18,NE,45,0.0,2.0,55,0.00,,,0.00,meteohub,2013-05-19 20:24:00,
2013-05-19 16:29:00,80.2,62.1,29.18,SSW,203,2.0,2.0,54,0.00,,,0.00,meteohub,2013-05-19 20:29:00,
2013-05-19 16:34:00,80.6,62.4,29.18,NW,315,3.0,5.0,54,0.00,,,0.00,meteohub,2013-05-19 20:34:00,
2013-05-19 16:39:00,81.1,62.4,29.18,ENE,68,0.0,5.0,53,0.00,,,0.00,meteohub,2013-05-19 20:39:00,
2013-05-19 16:44:00,81.3,62.6,29.18,SSE,158,2.0,5.0,53,0.00,,,0.00,meteohub,2013-05-19 20:44:00,
2013-05-19 16:49:00,81.3,62.1,29.18,NW,315,2.0,5.0,52,0.00,,,0.00,meteohub,2013-05-19 20:49:00,
2013-05-19 16:55:00,81.5,62.2,29.16,SSE,158,0.0,3.0,52,0.00,,,0.00,meteohub,2013-05-19 20:55:00,
2013-05-19 17:00:00,82.0,63.1,29.16,SSE,158,1.0,3.0,53,0.00,,,0.00,meteohub,2013-05-19 21:00:00,
2013-05-19 17:05:00,82.4,63.0,29.16,NNE,23,2.0,3.0,52,0.00,,,0.00,meteohub,2013-05-19 21:05:00,
2013-05-19 17:10:00,81.9,62.4,29.16,NNE,23,0.0,3.0,52,0.00,,,0.00,meteohub,2013-05-19 21:10:00,
2013-05-19 17:15:00,81.9,62.4,29.16,ENE,68,0.0,5.0,52,0.00,,,0.00,meteohub,2013-05-19 21:15:00,
2013-05-19 17:20:00,81.9,62.4,29.16,NE,45,4.0,5.0,52,0.00,,,0.00,meteohub,2013-05-19 21:20:00,
2013-05-19 17:25:00,81.7,62.4,29.16,NNE,23,6.0,6.0,52,0.00,,,0.00,meteohub,2013-05-19 21:25:00,
2013-05-19 17:30:00,81.1,62.4,29.16,NE,45,2.0,4.0,53,0.00,,,0.00,meteohub,2013-05-19 21:30:00,
2013-05-19 17:35:00,81.1,62.4,29.15,SSE,158,0.0,6.0,53,0.00,,,0.00,meteohub,2013-05-19 21:35:00,
2013-05-19 17:40:00,81.9,63.0,29.15,East,90,0.0,6.0,53,0.00,,,0.00,meteohub,2013-05-19 21:40:00,
2013-05-19 17:45:00,81.9,62.4,29.15,NE,45,3.0,5.0,52,0.00,,,0.00,meteohub,2013-05-19 21:45:00,
2013-05-19 17:50:00,82.0,62.6,29.15,ENE,68,2.0,5.0,52,0.00,,,0.00,meteohub,2013-05-19 21:50:00,
2013-05-19 17:55:00,82.0,62.6,29.13,NE,45,6.0,7.0,52,0.00,,,0.00,meteohub,2013-05-19 21:55:00,
2013-05-19 18:00:00,82.0,62.1,29.13,NE,45,3.0,7.0,51,0.00,,,0.00,meteohub,2013-05-19 22:00:00,
2013-05-19 18:05:00,82.0,62.6,29.13,NNE,23,6.0,8.0,52,0.00,,,0.00,meteohub,2013-05-19 22:05:00,
2013-05-19 18:10:00,82.2,62.8,29.13,ESE,113,7.0,8.0,52,0.00,,,0.00,meteohub,2013-05-19 22:10:00,
2013-05-19 18:15:00,82.2,62.8,29.14,NE,45,4.0,10.0,52,0.00,,,0.00,meteohub,2013-05-19 22:15:00,
2013-05-19 18:20:00,82.2,62.8,29.14,SE,135,2.0,10.0,52,0.00,,,0.00,meteohub,2013-05-19 22:20:00,
2013-05-19 18:25:00,82.6,63.1,29.14,ESE,113,5.0,10.0,52,0.00,,,0.00,meteohub,2013-05-19 22:25:00,
2013-05-19 18:30:00,82.8,62.8,29.14,ENE,68,2.0,7.0,51,0.00,,,0.00,meteohub,2013-05-19 22:30:00,
2013-05-19 18:35:00,83.1,63.1,29.15,ESE,113,0.0,5.0,51,0.00,,,0.00,meteohub,2013-05-19 22:35:00,
2013-05-19 18:40:00,83.5,64.0,29.15,ENE,68,2.0,5.0,52,0.00,,,0.00,meteohub,2013-05-19 22:40:00,
2013-05-19 18:45:00,83.5,63.5,29.15,North,0,0.0,4.0,51,0.00,,,0.00,meteohub,2013-05-19 22:45:00,
2013-05-19 18:50:00,82.9,62.4,29.15,ENE,68,2.0,4.0,50,0.00,,,0.00,meteohub,2013-05-19 22:50:00,
2013-05-19 18:55:00,82.6,62.6,29.16,NNE,23,3.0,3.0,51,0.00,,,0.00,meteohub,2013-05-19 22:55:00,
2013-05-19 19:00:00,82.0,62.6,29.16,NNE,23,0.0,3.0,52,0.00,,,0.00,meteohub,2013-05-19 23:00:00,
2013-05-19 19:05:00,81.7,62.4,29.16,NNE,23,3.0,3.0,52,0.00,,,0.00,meteohub,2013-05-19 23:05:00,
2013-05-19 19:10:00,81.5,62.2,29.16,NE,45,2.0,3.0,52,0.00,,,0.00,meteohub,2013-05-19 23:10:00,
2013-05-19 19:15:00,81.1,62.4,29.15,NNE,23,0.0,4.0,53,0.00,,,0.00,meteohub,2013-05-19 23:15:00,
2013-05-19 19:20:00,81.0,61.7,29.15,NE,45,2.0,4.0,52,0.00,,,0.00,meteohub,2013-05-19 23:20:00,
2013-05-19 19:25:00,80.2,61.5,29.15,ESE,113,0.0,3.0,53,0.00,,,0.00,meteohub,2013-05-19 23:25:00,
2013-05-19 19:30:00,79.2,61.2,29.15,SSE,158,3.0,3.0,54,0.00,,,0.00,meteohub,2013-05-19 23:30:00,
2013-05-19 19:35:00,78.1,60.1,29.16,North,0,0.0,3.0,54,0.00,,,0.00,meteohub,2013-05-19 23:35:00,
2013-05-19 19:40:00,77.2,60.3,29.16,SSE,158,0.0,3.0,56,0.00,,,0.00,meteohub,2013-05-19 23:40:00,
2013-05-19 19:45:00,76.1,59.7,29.16,WNW,293,2.0,3.0,57,0.00,,,0.00,meteohub,2013-05-19 23:45:00,
2013-05-19 19:50:00,75.4,60.1,29.16,SW,225,2.0,3.0,59,0.00,,,0.00,meteohub,2013-05-19 23:50:00,
2013-05-19 19:55:00,75.2,59.9,29.16,NW,315,0.0,3.0,59,0.00,,,0.00,meteohub,2013-05-19 23:55:00,
2013-05-19 20:00:00,75.0,60.3,29.16,NE,45,0.0,3.0,60,0.00,,,0.00,meteohub,2013-05-20 00:00:00,
2013-05-19 20:05:00,75.0,59.2,29.16,NE,45,5.0,5.0,58,0.00,,,0.00,meteohub,2013-05-20 00:05:00,
2013-05-19 20:10:00,75.2,59.0,29.16,NNE,23,7.0,7.0,57,0.00,,,0.00,meteohub,2013-05-20 00:10:00,
2013-05-19 20:15:00,75.2,59.0,29.16,NE,45,5.0,10.0,57,0.00,,,0.00,meteohub,2013-05-20 00:15:00,
2013-05-19 20:20:00,75.0,58.8,29.16,NE,45,6.0,10.0,57,0.00,,,0.00,meteohub,2013-05-20 00:20:00,
2013-05-19 20:25:00,74.8,58.6,29.16,NNE,23,7.0,11.0,57,0.00,,,0.00,meteohub,2013-05-20 00:25:00,
2013-05-19 20:30:00,74.7,58.8,29.16,NE,45,7.0,11.0,58,0.00,,,0.00,meteohub,2013-05-20 00:30:00,
2013-05-19 20:35:00,74.3,58.6,29.13,North,0,6.0,10.0,58,0.00,,,0.00,meteohub,2013-05-20 00:35:00,
2013-05-19 20:40:00,73.9,58.3,29.13,NNE,23,4.0,10.0,58,0.00,,,0.00,meteohub,2013-05-20 00:40:00,
2013-05-19 20:45:00,73.8,58.5,29.13,NE,45,5.0,7.0,59,0.00,,,0.00,meteohub,2013-05-20 00:45:00,
2013-05-19 20:50:00,73.6,58.3,29.13,NE,45,6.0,7.0,59,0.00,,,0.00,meteohub,2013-05-20 00:50:00,
2013-05-19 20:55:00,73.4,58.3,29.12,NE,45,6.0,8.0,59,0.00,,,0.00,meteohub,2013-05-20 00:55:00,
2013-05-19 21:01:00,73.0,58.3,29.12,NNE,23,6.0,8.0,60,0.00,,,0.00,meteohub,2013-05-20 01:01:00,
2013-05-19 21:06:00,72.7,57.9,29.12,NE,45,5.0,8.0,60,0.00,,,0.00,meteohub,2013-05-20 01:06:00,
2013-05-19 21:11:00,72.5,58.3,29.12,NNE,23,6.0,8.0,61,0.00,,,0.00,meteohub,2013-05-20 01:11:00,
2013-05-19 21:16:00,72.1,57.9,29.11,NE,45,4.0,6.0,61,0.00,,,0.00,meteohub,2013-05-20 01:16:00,
2013-05-19 21:21:00,71.8,57.6,29.11,NE,45,6.0,6.0,61,0.00,,,0.00,meteohub,2013-05-20 01:21:00,
2013-05-19 21:26:00,71.8,58.1,29.11,NE,45,2.0,6.0,62,0.00,,,0.00,meteohub,2013-05-20 01:26:00,
2013-05-19 21:31:00,71.6,57.9,29.11,NE,45,3.0,6.0,62,0.00,,,0.00,meteohub,2013-05-20 01:31:00,
2013-05-19 21:36:00,71.4,57.7,29.13,NE,45,3.0,6.0,62,0.00,,,0.00,meteohub,2013-05-20 01:36:00,
2013-05-19 21:41:00,71.4,57.7,29.13,NE,45,4.0,6.0,62,0.00,,,0.00,meteohub,2013-05-20 01:41:00,
2013-05-19 21:46:00,71.2,57.6,29.13,NE,45,4.0,5.0,62,0.00,,,0.00,meteohub,2013-05-20 01:46:00,
2013-05-19 21:51:00,71.2,57.6,29.13,NE,45,4.0,5.0,62,0.00,,,0.00,meteohub,2013-05-20 01:51:00,
2013-05-19 21:56:00,71.1,57.4,29.12,NE,45,8.0,8.0,62,0.00,,,0.00,meteohub,2013-05-20 01:56:00,
2013-05-19 22:01:00,71.2,57.6,29.12,East,90,6.0,7.0,62,0.00,,,0.00,meteohub,2013-05-20 02:01:00,
2013-05-19 22:06:00,71.2,57.6,29.12,East,90,4.0,8.0,62,0.00,,,0.00,meteohub,2013-05-20 02:06:00,
2013-05-19 22:11:00,71.2,57.0,29.12,ENE,68,4.0,8.0,61,0.00,,,0.00,meteohub,2013-05-20 02:11:00,
2013-05-19 22:16:00,71.2,57.0,29.13,NE,45,5.0,7.0,61,0.00,,,0.00,meteohub,2013-05-20 02:16:00,
2013-05-19 22:21:00,71.2,57.0,29.13,ENE,68,3.0,7.0,61,0.00,,,0.00,meteohub,2013-05-20 02:21:00,
2013-05-19 22:26:00,71.2,57.0,29.13,NNE,23,8.0,8.0,61,0.00,,,0.00,meteohub,2013-05-20 02:26:00,
2013-05-19 22:31:00,71.2,57.0,29.13,NE,45,4.0,7.0,61,0.00,,,0.00,meteohub,2013-05-20 02:31:00,
2013-05-19 22:36:00,71.1,56.8,29.13,NNE,23,3.0,7.0,61,0.00,,,0.00,meteohub,2013-05-20 02:36:00,
2013-05-19 22:41:00,70.9,56.8,29.13,NE,45,3.0,8.0,61,0.00,,,0.00,meteohub,2013-05-20 02:41:00,
2013-05-19 22:46:00,70.7,56.7,29.13,NNE,23,2.0,8.0,61,0.00,,,0.00,meteohub,2013-05-20 02:46:00,
2013-05-19 22:51:00,70.5,56.5,29.13,East,90,3.0,8.0,61,0.00,,,0.00,meteohub,2013-05-20 02:51:00,
2013-05-19 22:56:00,70.3,56.3,29.14,East,90,2.0,8.0,61,0.00,,,0.00,meteohub,2013-05-20 02:56:00,
2013-05-19 23:01:00,70.3,56.3,29.14,NE,45,0.0,5.0,61,0.00,,,0.00,meteohub,2013-05-20 03:01:00,
2013-05-19 23:06:00,70.0,56.3,29.14,East,90,3.0,5.0,62,0.00,,,0.00,meteohub,2013-05-20 03:06:00,
2013-05-19 23:11:00,69.8,56.1,29.14,ENE,68,6.0,6.0,62,0.00,,,0.00,meteohub,2013-05-20 03:11:00,
2013-05-19 23:16:00,69.6,55.9,29.14,NE,45,2.0,5.0,62,0.00,,,0.00,meteohub,2013-05-20 03:16:00,
2013-05-19 23:21:00,69.4,55.9,29.14,NE,45,4.0,6.0,62,0.00,,,0.00,meteohub,2013-05-20 03:21:00,
2013-05-19 23:26:00,69.3,55.8,29.14,NNE,23,4.0,6.0,62,0.00,,,0.00,meteohub,2013-05-20 03:26:00,
2013-05-19 23:31:00,69.1,55.9,29.14,East,90,3.0,6.0,63,0.00,,,0.00,meteohub,2013-05-20 03:31:00,
2013-05-19 23:36:00,69.1,55.9,29.14,NE,45,4.0,5.0,63,0.00,,,0.00,meteohub,2013-05-20 03:36:00,
2013-05-19 23:41:00,68.9,55.8,29.14,East,90,5.0,5.0,63,0.00,,,0.00,meteohub,2013-05-20 03:41:00,
2013-05-19 23:46:00,68.7,55.6,29.14,ENE,68,3.0,6.0,63,0.00,,,0.00,meteohub,2013-05-20 03:46:00,
2013-05-19 23:51:00,68.5,55.4,29.14,SSW,203,2.0,6.0,63,0.00,,,0.00,meteohub,2013-05-20 03:51:00,
2013-05-19 23:56:00,68.4,55.8,29.14,NE,45,4.0,5.0,64,0.00,,,0.00,meteohub,2013-05-20 03:56:00,